Time;durP1;ratioP1;P1;durP2;ratioP2;P2;SDS_P1;SDS_P2;PMS_P1;PMS_P2;Temp;Humidity;BMP_temperature;BMP_pressure;BME280_temperature;BME280_humidity;BME280_pressure;Samples;Min_cycle;Max_cycle;Signal;HPM_P1;HPM_P2
2022/02/12 00:00:04;;;;;;;9.35;4.93;;;1.20;77.90;;;;;;5135814;27;20360;-75
2022/02/12 00:02:30;;;;;;;12.77;4.72;;;1.10;77.80;;;;;;5135853;27;20084;-75
2022/02/12 00:04:56;;;;;;;11.73;4.63;;;1.10;78.10;;;;;;5135738;27;20019;-75
2022/02/12 00:07:21;;;;;;;10.73;4.28;;;1.00;78.10;;;;;;5135675;27;20036;-76
2022/02/12 00:09:47;;;;;;;13.05;4.78;;;0.90;78.40;;;;;;5135773;27;20473;-76
2022/02/12 00:12:12;;;;;;;13.50;4.82;;;0.80;78.80;;;;;;5135632;27;20023;-74
2022/02/12 00:14:38;;;;;;;10.43;4.90;;;0.80;79.10;;;;;;5135462;27;20622;-75
2022/02/12 00:17:03;;;;;;;11.15;4.75;;;0.80;79.10;;;;;;5117114;27;20015;-76
2022/02/12 00:19:29;;;;;;;11.30;4.95;;;0.80;79.20;;;;;;5135066;27;20031;-75
2022/02/12 00:21:54;;;;;;;9.80;4.70;;;0.80;78.90;;;;;;5135293;27;20061;-76
2022/02/12 00:24:20;;;;;;;9.38;4.68;;;0.80;78.80;;;;;;5117159;27;20061;-76
2022/02/12 00:26:45;;;;;;;11.82;4.80;;;0.80;78.90;;;;;;5135424;27;20023;-75
2022/02/12 00:29:11;;;;;;;11.57;4.68;;;0.90;79.00;;;;;;5135221;27;20046;-76
2022/02/12 00:31:36;;;;;;;12.00;5.22;;;0.90;78.80;;;;;;5135263;27;20023;-75
2022/02/12 00:34:02;;;;;;;10.40;4.25;;;0.90;78.50;;;;;;5135254;27;20031;-77
2022/02/12 00:36:27;;;;;;;9.10;3.95;;;0.90;78.30;;;;;;5135212;27;20091;-76
2022/02/12 00:38:53;;;;;;;13.25;5.38;;;0.80;78.50;;;;;;5135085;27;20058;-75
2022/02/12 00:41:19;;;;;;;16.83;4.88;;;0.70;78.80;;;;;;5135118;27;20025;-75
2022/02/12 00:43:44;;;;;;;11.85;5.13;;;0.60;79.00;;;;;;5135090;27;20387;-75
2022/02/12 00:46:10;;;;;;;9.23;4.22;;;0.70;79.30;;;;;;5116577;27;20027;-75
2022/02/12 00:48:35;;;;;;;9.20;4.05;;;0.70;79.30;;;;;;5134836;27;20523;-76
2022/02/12 00:51:01;;;;;;;10.73;4.85;;;0.80;79.00;;;;;;5134918;27;20335;-75
2022/02/12 00:53:26;;;;;;;9.60;4.63;;;0.80;78.70;;;;;;5134831;27;20498;-76
2022/02/12 00:55:52;;;;;;;15.50;5.32;;;0.90;78.70;;;;;;5134770;27;20023;-75
2022/02/12 00:58:19;;;;;;;11.27;5.00;;;0.90;78.30;;;;;;5134741;27;20027;-75
2022/02/12 01:00:45;;;;;;;10.70;4.80;;;1.00;78.10;;;;;;5134739;27;20391;-75
2022/02/12 01:03:10;;;;;;;12.45;4.82;;;1.00;77.80;;;;;;5134629;27;20027;-75
2022/02/12 01:05:37;;;;;;;12.02;4.60;;;0.90;77.70;;;;;;5134901;27;20027;-75
2022/02/12 01:08:03;;;;;;;13.63;4.55;;;1.00;77.50;;;;;;5134363;27;20034;-75
2022/02/12 01:10:29;;;;;;;15.30;4.50;;;1.00;77.40;;;;;;5134614;27;20047;-75
2022/02/12 01:12:55;;;;;;;11.20;4.15;;;1.00;77.30;;;;;;5134439;27;20023;-74
2022/02/12 01:15:21;;;;;;;13.82;4.85;;;1.00;77.30;;;;;;5115833;27;20051;-74
2022/02/12 01:17:47;;;;;;;15.18;5.60;;;1.00;77.10;;;;;;5134435;27;20027;-75
2022/02/12 01:20:12;;;;;;;11.80;4.72;;;0.90;77.10;;;;;;5134490;27;20060;-75
2022/02/12 01:22:38;;;;;;;12.88;4.25;;;1.00;77.00;;;;;;5134827;27;20023;-75
2022/02/12 01:25:05;;;;;;;9.10;4.18;;;1.00;76.90;;;;;;5134284;27;20370;-75
2022/02/12 01:27:30;;;;;;;10.73;4.40;;;1.00;76.80;;;;;;5134244;27;20103;-75
2022/02/12 01:29:56;;;;;;;13.00;4.68;;;1.00;76.80;;;;;;5134311;27;20460;-75
2022/02/12 01:32:21;;;;;;;10.68;4.35;;;1.00;76.60;;;;;;5133519;27;20386;-76
2022/02/12 01:34:47;;;;;;;10.48;4.10;;;0.90;76.70;;;;;;5134138;27;20490;-75
2022/02/12 01:37:12;;;;;;;15.23;5.28;;;0.90;76.90;;;;;;5134173;27;20015;-75
2022/02/12 01:39:38;;;;;;;10.77;3.63;;;0.90;76.80;;;;;;5115758;27;20019;-76
2022/02/12 01:42:04;;;;;;;10.38;3.83;;;0.90;76.80;;;;;;5134016;27;20023;-75
2022/02/12 01:44:32;;;;;;;11.27;4.43;;;0.90;76.60;;;;;;5134109;27;20026;-75
2022/02/12 01:46:58;;;;;;;16.63;4.88;;;0.80;76.50;;;;;;5134032;27;20044;-75
2022/02/12 01:49:24;;;;;;;12.20;4.32;;;0.70;77.50;;;;;;5115585;28;20057;-75
2022/02/12 01:51:51;;;;;;;9.73;4.10;;;0.70;76.90;;;;;;5133908;27;20522;-75
2022/02/12 01:54:17;;;;;;;12.25;4.47;;;0.60;77.00;;;;;;5134030;28;20037;-75
2022/02/12 01:56:44;;;;;;;13.15;4.82;;;0.60;77.00;;;;;;5115422;28;20020;-76
2022/02/12 01:59:10;;;;;;;14.50;4.32;;;0.50;78.30;;;;;;5133918;28;20038;-75
2022/02/12 02:01:36;;;;;;;15.25;5.07;;;0.50;77.80;;;;;;5133881;28;20104;-76
2022/02/12 02:04:01;;;;;;;15.63;4.55;;;0.50;78.10;;;;;;5133819;28;20070;-76
2022/02/12 02:06:27;;;;;;;9.45;4.32;;;0.40;78.10;;;;;;5133857;28;20035;-76
2022/02/12 02:08:52;;;;;;;9.48;4.20;;;0.50;78.30;;;;;;5133771;28;20027;-76
2022/02/12 02:11:18;;;;;;;9.85;4.85;;;0.50;78.10;;;;;;5133762;28;20019;-76
2022/02/12 02:13:45;;;;;;;14.25;4.13;;;0.50;78.30;;;;;;5133637;28;20055;-76
2022/02/12 02:16:12;;;;;;;11.30;4.82;;;0.50;78.20;;;;;;5133757;28;20051;-75
2022/02/12 02:18:38;;;;;;;12.48;4.40;;;0.60;78.10;;;;;;5133785;28;20034;-75
2022/02/12 02:21:08;;;;;;;7.90;4.00;;;0.70;77.70;;;;;;5133648;28;20026;-76
2022/02/12 02:23:38;;;;;;;14.27;4.57;;;0.70;77.40;;;;;;5133737;28;20023;-76
2022/02/12 02:26:04;;;;;;;10.43;4.10;;;0.70;77.20;;;;;;5133648;28;20061;-76
2022/02/12 02:28:30;;;;;;;10.30;3.60;;;0.70;77.00;;;;;;5133594;28;20502;-76
2022/02/12 02:30:56;;;;;;;9.77;3.75;;;0.70;76.90;;;;;;5133597;28;20020;-76
2022/02/12 02:33:21;;;;;;;11.00;4.25;;;0.70;76.80;;;;;;5133575;28;20119;-76
2022/02/12 02:35:47;;;;;;;9.52;3.67;;;0.70;76.80;;;;;;5133572;28;20015;-76
2022/02/12 02:38:15;;;;;;;13.25;4.40;;;0.70;76.80;;;;;;5133602;28;20031;-76
2022/02/12 02:40:47;;;;;;;9.07;4.10;;;0.70;76.80;;;;;;5133505;28;20467;-75
2022/02/12 02:43:13;;;;;;;11.98;4.43;;;0.70;76.70;;;;;;5134573;27;20383;-76
2022/02/12 02:45:39;;;;;;;10.88;4.13;;;0.70;76.60;;;;;;5137294;27;20015;-75
2022/02/12 02:48:09;;;;;;;16.63;4.20;;;0.70;76.40;;;;;;5137356;27;20043;-75
2022/02/12 02:56:04;;;;;;;12.52;4.57;;;0.60;76.40;;;;;;5137252;27;20050;-75
2022/02/12 02:58:36;;;;;;;7.50;4.38;;;0.60;76.60;;;;;;5137135;27;20065;-75
2022/02/12 03:01:08;;;;;;;17.60;4.57;;;0.50;76.60;;;;;;5137057;27;20023;-75
2022/02/12 03:03:35;;;;;;;10.75;4.63;;;0.50;76.80;;;;;;5137101;27;20026;-75
2022/02/12 03:06:00;;;;;;;19.30;5.43;;;0.50;77.00;;;;;;5137046;27;20023;-76
2022/02/12 03:08:28;;;;;;;16.95;5.35;;;0.60;77.10;;;;;;5136850;27;20121;-75
2022/02/12 03:10:54;;;;;;;13.23;5.20;;;0.60;76.90;;;;;;5136908;27;20057;-75
2022/02/12 03:13:21;;;;;;;17.15;5.75;;;0.60;76.90;;;;;;5118514;27;20026;-75
2022/02/12 03:15:47;;;;;;;14.05;5.50;;;0.60;76.80;;;;;;5136630;27;20075;-75
2022/02/12 03:18:12;;;;;;;10.70;4.60;;;0.60;76.80;;;;;;5136725;27;20015;-76
2022/02/12 03:20:38;;;;;;;12.55;5.03;;;0.70;76.70;;;;;;5136729;27;20395;-76
2022/02/12 03:23:04;;;;;;;14.65;4.90;;;0.60;76.30;;;;;;5136699;27;20023;-75
2022/02/12 03:25:30;;;;;;;14.50;5.00;;;0.60;76.10;;;;;;5136619;27;20061;-76
2022/02/12 03:27:57;;;;;;;10.10;4.82;;;0.60;76.20;;;;;;5136545;27;20470;-75
2022/02/12 03:30:31;;;;;;;8.85;4.55;;;0.60;76.20;;;;;;5136461;27;20067;-75
2022/02/12 03:32:57;;;;;;;14.60;4.95;;;0.60;76.30;;;;;;5136388;27;20494;-75
2022/02/12 03:35:23;;;;;;;12.00;4.63;;;0.50;76.30;;;;;;5136395;27;20050;-75
2022/02/12 03:38:13;;;;;;;12.48;4.72;;;0.60;76.20;;;;;;5117943;27;20103;-75
2022/02/12 03:40:41;;;;;;;12.55;4.60;;;0.60;76.10;;;;;;5135618;27;20042;-76
2022/02/12 03:43:08;;;;;;;11.05;4.53;;;0.50;76.20;;;;;;5136210;27;20047;-76
2022/02/12 03:45:34;;;;;;;15.40;4.80;;;0.50;77.00;;;;;;5136226;27;20038;-76
2022/02/12 03:48:00;;;;;;;9.52;4.43;;;0.50;76.20;;;;;;5136097;27;20122;-75
2022/02/12 03:50:27;;;;;;;11.40;4.47;;;0.50;76.40;;;;;;5136174;27;20060;-76
2022/02/12 03:52:53;;;;;;;10.50;3.67;;;0.50;76.30;;;;;;5136040;27;20023;-76
2022/02/12 03:55:19;;;;;;;8.30;3.92;;;0.50;76.20;;;;;;5135077;27;20463;-76
2022/02/12 03:57:45;;;;;;;8.73;3.67;;;0.50;76.20;;;;;;5135962;27;20026;-76
2022/02/12 04:00:11;;;;;;;12.05;3.78;;;0.50;76.20;;;;;;5135930;27;20023;-75
2022/02/12 04:02:44;;;;;;;10.00;4.03;;;0.40;76.20;;;;;;5135877;27;20030;-75
2022/02/12 04:05:11;;;;;;;13.85;3.97;;;0.40;76.10;;;;;;5135860;27;20015;-76
2022/02/12 04:07:39;;;;;;;13.70;5.05;;;0.40;76.00;;;;;;5135829;27;20062;-75
2022/02/12 04:10:06;;;;;;;9.52;3.88;;;0.40;76.20;;;;;;5135735;27;20502;-77
2022/02/12 04:12:32;;;;;;;9.02;3.83;;;0.40;76.00;;;;;;5135663;27;20023;-76
2022/02/12 04:14:57;;;;;;;11.35;4.25;;;0.40;75.80;;;;;;5135428;27;20107;-76
2022/02/12 04:17:24;;;;;;;11.10;4.00;;;0.40;75.80;;;;;;5135882;27;20030;-74
2022/02/12 04:19:50;;;;;;;15.07;4.88;;;0.40;75.70;;;;;;5135420;27;20034;-74
2022/02/12 04:22:16;;;;;;;13.70;5.00;;;0.40;75.70;;;;;;5135472;27;20487;-74
2022/02/12 04:24:42;;;;;;;16.50;5.30;;;0.40;76.10;;;;;;5135393;27;20067;-75
2022/02/12 04:27:07;;;;;;;13.30;5.45;;;0.30;76.10;;;;;;5116911;27;20490;-75
2022/02/12 04:29:33;;;;;;;18.95;7.07;;;0.30;76.20;;;;;;5135298;27;20039;-74
2022/02/12 04:31:58;;;;;;;16.40;5.72;;;0.20;76.60;;;;;;5135350;27;20022;-75
2022/02/12 04:34:24;;;;;;;17.33;6.28;;;0.00;77.00;;;;;;5135186;27;20083;-74
2022/02/12 04:36:50;;;;;;;14.13;5.85;;;0.00;77.20;;;;;;5135092;27;20492;-74
2022/02/12 04:39:16;;;;;;;17.35;6.75;;;0.00;77.50;;;;;;5135108;27;20016;-75
2022/02/12 04:41:42;;;;;;;20.23;6.93;;;0.00;77.50;;;;;;5135043;27;20038;-75
2022/02/12 04:44:08;;;;;;;26.13;7.50;;;0.00;77.40;;;;;;5134815;27;20027;-74
2022/02/12 04:46:33;;;;;;;11.68;5.75;;;-0.10;77.60;;;;;;5116442;27;20019;-74
2022/02/12 04:48:59;;;;;;;19.33;6.35;;;0.00;77.70;;;;;;5134738;27;20035;-74
2022/02/12 04:51:25;;;;;;;17.20;6.60;;;-0.10;77.50;;;;;;5134848;27;20023;-74
2022/02/12 04:53:51;;;;;;;25.23;10.70;;;0.00;77.30;;;;;;5134866;27;20015;-75
2022/02/12 04:56:17;;;;;;;30.98;11.20;;;0.00;77.20;;;;;;5134725;27;20102;-75
2022/02/12 04:58:43;;;;;;;29.45;10.32;;;0.00;77.20;;;;;;5134739;27;20471;-75
2022/02/12 05:01:19;;;;;;;20.45;9.02;;;0.00;77.20;;;;;;5134731;27;20087;-75
2022/02/12 05:03:47;;;;;;;18.88;8.48;;;0.00;77.20;;;;;;5134994;27;20375;-75
2022/02/12 05:06:12;;;;;;;21.98;7.70;;;0.10;77.20;;;;;;5134520;27;20378;-75
2022/02/12 05:08:40;;;;;;;16.60;6.03;;;0.10;77.10;;;;;;5134579;27;20106;-75
2022/02/12 05:11:05;;;;;;;17.98;6.35;;;0.20;77.00;;;;;;5134457;27;20023;-76
2022/02/12 05:13:31;;;;;;;18.42;6.38;;;0.20;76.90;;;;;;5134571;27;20027;-75
2022/02/12 05:15:56;;;;;;;18.38;7.10;;;0.10;76.70;;;;;;5134296;27;20510;-76
2022/02/12 05:18:22;;;;;;;17.10;6.80;;;0.20;76.60;;;;;;5134465;27;20034;-76
2022/02/12 05:20:48;;;;;;;20.52;6.78;;;0.20;76.70;;;;;;5134356;27;20015;-75
2022/02/12 05:23:14;;;;;;;15.20;5.43;;;0.20;76.70;;;;;;5134373;27;20030;-74
2022/02/12 05:25:40;;;;;;;19.63;6.60;;;0.20;76.60;;;;;;5134227;27;20474;-74
2022/02/12 05:28:06;;;;;;;16.92;6.25;;;0.20;76.60;;;;;;5134150;27;20052;-74
2022/02/12 05:30:33;;;;;;;16.55;6.07;;;0.10;76.60;;;;;;5134290;27;20502;-76
2022/02/12 05:32:59;;;;;;;17.48;6.07;;;0.10;76.80;;;;;;5115850;27;20479;-74
2022/02/12 05:35:24;;;;;;;14.55;5.38;;;0.10;76.80;;;;;;5134065;27;20033;-75
2022/02/12 05:37:50;;;;;;;11.10;4.85;;;0.10;77.00;;;;;;5134208;27;20027;-75
2022/02/12 05:40:15;;;;;;;14.35;4.57;;;0.10;76.90;;;;;;5134171;27;20086;-75
2022/02/12 05:42:41;;;;;;;11.05;4.60;;;0.20;76.70;;;;;;5134122;27;20038;-75
2022/02/12 05:45:07;;;;;;;8.85;4.72;;;0.20;76.60;;;;;;5133936;27;20026;-75
2022/02/12 05:47:36;;;;;;;14.90;4.68;;;0.10;76.30;;;;;;5133915;27;20031;-75
2022/02/12 05:50:02;;;;;;;14.75;5.00;;;0.20;76.10;;;;;;5133892;27;20023;-76
2022/02/12 05:52:28;;;;;;;9.82;4.57;;;0.20;76.00;;;;;;5133971;27;20091;-75
2022/02/12 05:54:53;;;;;;;10.65;4.53;;;0.10;75.70;;;;;;5133895;28;20019;-76
2022/02/12 05:57:19;;;;;;;16.58;5.18;;;0.10;75.80;;;;;;5115508;28;20584;-76
2022/02/12 05:59:44;;;;;;;16.38;5.45;;;0.00;76.00;;;;;;5133936;28;20030;-75
2022/02/12 06:02:10;;;;;;;14.35;5.70;;;0.10;76.20;;;;;;5133934;28;20023;-76
2022/02/12 06:04:35;;;;;;;19.60;6.40;;;0.00;76.10;;;;;;5133893;28;20100;-76
2022/02/12 06:07:01;;;;;;;14.00;5.57;;;0.00;76.30;;;;;;5133848;28;20068;-75
2022/02/12 06:09:27;;;;;;;20.67;5.65;;;0.00;75.80;;;;;;5134008;28;20084;-75
2022/02/12 06:11:53;;;;;;;15.02;5.93;;;0.00;75.80;;;;;;5133643;28;20015;-75
2022/02/12 06:14:19;;;;;;;11.35;5.60;;;-0.10;75.80;;;;;;5133583;28;20057;-75
2022/02/12 06:16:44;;;;;;;17.95;6.15;;;-0.10;75.70;;;;;;5115450;28;20023;-74
2022/02/12 06:19:10;;;;;;;20.38;8.80;;;-0.10;75.70;;;;;;5118130;27;20026;-75
2022/02/12 06:21:35;;;;;;;24.10;8.90;;;-0.10;75.50;;;;;;5137858;27;20025;-75
2022/02/12 06:24:01;;;;;;;20.35;8.00;;;-0.20;75.60;;;;;;5119385;27;20023;-75
2022/02/12 06:26:26;;;;;;;21.27;7.65;;;-0.20;75.90;;;;;;5137856;27;20023;-75
2022/02/12 06:28:52;;;;;;;23.40;7.55;;;-0.20;76.00;;;;;;5137541;27;20086;-76
2022/02/12 06:31:18;;;;;;;14.55;5.22;;;-0.20;76.40;;;;;;5119168;27;20170;-75
2022/02/12 06:33:43;;;;;;;10.48;4.90;;;-0.20;76.60;;;;;;5119327;27;20019;-76
2022/02/12 06:36:09;;;;;;;17.17;6.53;;;-0.20;76.50;;;;;;5119308;27;20491;-76
2022/02/12 06:38:35;;;;;;;19.10;6.35;;;-0.10;76.60;;;;;;5119095;27;20023;-75
2022/02/12 06:41:00;;;;;;;17.60;5.60;;;-0.20;76.20;;;;;;5137342;27;20031;-75
2022/02/12 06:43:26;;;;;;;16.60;6.15;;;-0.10;76.30;;;;;;5118992;27;20112;-75
2022/02/12 06:45:52;;;;;;;14.35;6.53;;;-0.20;76.20;;;;;;5118968;27;20506;-75
2022/02/12 06:48:18;;;;;;;13.10;6.68;;;-0.20;76.20;;;;;;5119044;27;20127;-76
2022/02/12 06:50:44;;;;;;;23.73;8.55;;;-0.10;76.30;;;;;;5118708;27;20030;-75
2022/02/12 06:53:10;;;;;;;12.73;6.55;;;-0.20;75.80;;;;;;5137125;27;20375;-77
2022/02/12 06:55:36;;;;;;;17.52;6.30;;;-0.20;75.60;;;;;;5118781;27;20117;-75
2022/02/12 06:58:01;;;;;;;14.38;5.97;;;-0.20;75.10;;;;;;5118632;27;20106;-76
2022/02/12 07:00:29;;;;;;;14.27;5.78;;;-0.30;75.00;;;;;;5118675;27;20015;-75
2022/02/12 07:02:54;;;;;;;17.75;6.28;;;-0.30;75.10;;;;;;5118504;27;20031;-76
2022/02/12 07:05:20;;;;;;;18.45;6.63;;;-0.30;75.90;;;;;;5118326;27;20019;-76
2022/02/12 07:07:48;;;;;;;19.23;8.18;;;-0.30;76.30;;;;;;5118373;27;20059;-75
2022/02/12 07:10:15;;;;;;;28.98;10.68;;;-0.40;76.50;;;;;;5118419;27;20154;-75
2022/02/12 07:12:42;;;;;;;28.90;9.40;;;-0.30;76.10;;;;;;5136888;27;20115;-74
2022/02/12 07:15:08;;;;;;;23.35;7.75;;;-0.40;75.70;;;;;;5118322;27;20502;-76
2022/02/12 07:17:39;;;;;;;16.25;7.40;;;-0.40;75.80;;;;;;5118459;27;20067;-75
2022/02/12 07:20:05;;;;;;;21.42;8.13;;;-0.50;76.00;;;;;;5118018;27;20023;-73
2022/02/12 07:22:31;;;;;;;23.88;8.25;;;-0.50;76.10;;;;;;5136734;27;20028;-74
2022/02/12 07:24:57;;;;;;;21.15;8.25;;;-0.50;75.90;;;;;;5136467;27;20498;-78
2022/02/12 07:27:22;;;;;;;19.50;8.75;;;-0.50;75.70;;;;;;5118061;27;20031;-74
2022/02/12 07:29:48;;;;;;;21.23;8.18;;;-0.40;75.40;;;;;;5116668;27;20019;-73
2022/02/12 07:32:13;;;;;;;18.23;7.65;;;-0.40;75.40;;;;;;5117721;27;20076;-74
2022/02/12 07:34:39;;;;;;;24.38;9.18;;;-0.30;75.30;;;;;;5118093;27;20023;-74
2022/02/12 07:37:04;;;;;;;22.05;8.32;;;-0.20;75.20;;;;;;5136238;27;20401;-75
2022/02/12 07:39:30;;;;;;;27.08;8.45;;;-0.20;75.20;;;;;;5136126;27;20044;-75
2022/02/12 07:41:56;;;;;;;17.90;7.35;;;0.00;75.30;;;;;;5117665;27;20019;-75
2022/02/12 07:44:21;;;;;;;20.42;7.82;;;0.00;75.20;;;;;;5136149;27;20590;-73
2022/02/12 07:46:47;;;;;;;14.18;6.28;;;0.10;75.30;;;;;;5135981;27;20020;-74
2022/02/12 07:49:13;;;;;;;15.75;6.72;;;0.20;75.30;;;;;;5117313;27;20067;-74
2022/02/12 07:51:40;;;;;;;24.40;7.18;;;0.30;75.30;;;;;;5117408;27;20475;-75
2022/02/12 07:54:06;;;;;;;27.33;5.63;;;0.40;74.90;;;;;;5117296;27;20551;-82
2022/02/12 07:56:31;;;;;;;14.15;7.40;;;1.10;89.90;;;;;;5118700;27;20050;-85
2022/02/12 07:58:58;;;;;;;23.13;8.50;;;2.40;97.70;;;;;;5117531;27;20050;-79
2022/02/12 08:01:24;;;;;;;18.15;5.60;;;3.80;97.30;;;;;;5117854;27;20030;-82
2022/02/12 08:03:50;;;;;;;13.57;4.93;;;4.60;86.20;;;;;;5117266;27;20016;-76
2022/02/12 08:09:00;;;;;;;15.40;6.03;;;5.60;74.50;;;;;;5135274;27;20497;-76
2022/02/12 08:11:28;;;;;;;14.63;6.07;;;5.40;67.50;;;;;;5117218;27;20027;-75
2022/02/12 08:13:54;;;;;;;19.67;6.35;;;5.50;66.50;;;;;;5116869;27;20027;-74
2022/02/12 08:16:20;;;;;;;15.60;5.85;;;5.40;67.30;;;;;;5135566;27;20027;-76
2022/02/12 08:18:45;;;;;;;14.57;6.55;;;5.60;67.10;;;;;;5116764;27;20023;-74
2022/02/12 08:21:13;;;;;;;17.92;6.88;;;5.50;65.30;;;;;;5116476;27;20114;-74
2022/02/12 08:23:39;;;;;;;19.88;8.55;;;5.80;66.30;;;;;;5116974;27;20019;-76
2022/02/12 08:26:04;;;;;;;19.23;7.97;;;5.60;60.50;;;;;;5116623;27;20122;-76
2022/02/12 08:28:30;;;;;;;17.35;7.95;;;5.10;58.50;;;;;;5134890;27;20106;-76
2022/02/12 08:30:56;;;;;;;22.88;9.18;;;4.70;59.80;;;;;;5116763;27;20043;-76
2022/02/12 08:33:21;;;;;;;19.95;6.63;;;4.40;60.20;;;;;;5135079;27;20023;-77
2022/02/12 08:35:47;;;;;;;14.50;6.93;;;4.10;61.00;;;;;;5116521;27;20023;-76
2022/02/12 08:38:13;;;;;;;13.00;6.47;;;3.90;62.60;;;;;;5116334;27;20023;-79
2022/02/12 08:40:39;;;;;;;16.52;6.53;;;3.90;63.00;;;;;;5115952;27;20035;-74
2022/02/12 08:43:07;;;;;;;15.52;6.20;;;3.80;63.30;;;;;;5116095;27;20026;-75
2022/02/12 08:45:34;;;;;;;16.67;6.10;;;3.80;63.10;;;;;;5116271;27;20019;-75
2022/02/12 08:48:00;;;;;;;20.40;5.68;;;3.80;63.50;;;;;;5116451;27;20023;-75
2022/02/12 08:50:25;;;;;;;10.23;4.20;;;3.70;64.00;;;;;;5116508;27;20031;-76
2022/02/12 08:52:51;;;;;;;17.42;4.43;;;3.70;63.80;;;;;;5116332;27;20026;-76
2022/02/12 08:55:17;;;;;;;10.55;4.70;;;3.60;63.80;;;;;;5116320;27;20493;-75
2022/02/12 08:57:42;;;;;;;10.23;4.22;;;3.70;64.00;;;;;;5116376;27;20030;-77
2022/02/12 09:00:10;;;;;;;10.82;4.63;;;3.80;64.00;;;;;;5116349;27;20019;-74
2022/02/12 09:02:36;;;;;;;14.77;5.97;;;4.00;63.70;;;;;;5134330;27;20037;-75
2022/02/12 09:05:03;;;;;;;14.50;6.30;;;3.80;63.70;;;;;;5115363;27;20027;-75
2022/02/12 09:07:28;;;;;;;13.73;4.90;;;3.90;63.80;;;;;;5116131;27;20052;-75
2022/02/12 09:09:54;;;;;;;13.52;5.53;;;3.90;62.80;;;;;;5116055;27;20035;-75
2022/02/12 09:12:21;;;;;;;14.05;4.75;;;4.00;61.90;;;;;;5116094;27;20020;-76
2022/02/12 09:14:46;;;;;;;12.43;5.50;;;4.10;63.10;;;;;;5115462;27;20392;-76
2022/02/12 09:17:12;;;;;;;15.98;6.15;;;4.30;61.70;;;;;;5115684;27;20060;-76
2022/02/12 09:19:39;;;;;;;11.63;5.03;;;4.40;62.10;;;;;;5115925;27;20063;-76
2022/02/12 09:22:04;;;;;;;15.20;6.03;;;4.50;60.40;;;;;;5115685;27;20469;-76
2022/02/12 09:24:30;;;;;;;10.23;5.03;;;4.40;58.90;;;;;;5115551;27;20019;-76
2022/02/12 09:26:56;;;;;;;12.23;5.65;;;4.40;59.80;;;;;;5115410;27;20475;-76
2022/02/12 09:29:21;;;;;;;9.77;5.15;;;4.40;59.30;;;;;;5115218;27;20031;-76
2022/02/12 09:31:47;;;;;;;17.17;5.28;;;4.70;59.50;;;;;;5115259;27;20047;-75
2022/02/12 09:34:13;;;;;;;9.65;3.63;;;5.00;57.70;;;;;;5133725;27;20026;-75
2022/02/12 09:36:40;;;;;;;14.27;4.70;;;4.90;55.40;;;;;;5115440;27;20023;-76
2022/02/12 09:39:06;;;;;;;10.52;4.13;;;4.80;55.20;;;;;;5115075;27;20023;-75
2022/02/12 09:41:32;;;;;;;8.38;3.70;;;4.90;54.30;;;;;;5115202;28;20026;-77
2022/02/12 09:43:58;;;;;;;9.20;4.50;;;4.90;54.30;;;;;;5114771;28;20023;-75
2022/02/12 09:46:35;;;;;;;10.88;4.97;;;5.00;53.80;;;;;;5115449;27;20019;-75
2022/02/12 09:49:03;;;;;;;11.57;5.13;;;5.10;54.90;;;;;;5114943;28;20114;-75
2022/02/12 09:51:30;;;;;;;15.48;4.10;;;5.40;55.70;;;;;;5114865;27;20027;-75
2022/02/12 09:53:57;;;;;;;8.85;3.22;;;5.50;52.60;;;;;;5114020;28;20107;-76
2022/02/12 09:56:23;;;;;;;6.80;3.17;;;5.70;51.00;;;;;;5114995;28;20023;-75
2022/02/12 09:58:50;;;;;;;7.88;3.13;;;5.80;49.30;;;;;;5114778;28;20023;-76
2022/02/12 10:01:19;;;;;;;11.30;3.70;;;5.80;48.80;;;;;;5114584;28;20085;-76
2022/02/12 10:03:45;;;;;;;6.47;3.30;;;5.80;48.30;;;;;;5133478;28;20019;-75
2022/02/12 10:06:11;;;;;;;7.75;3.00;;;5.80;48.70;;;;;;5115112;28;20023;-75
2022/02/12 10:08:39;;;;;;;8.93;3.47;;;6.00;48.10;;;;;;5115107;28;20058;-75
2022/02/12 10:11:16;;;;;;;5.45;2.60;;;6.30;47.80;;;;;;5114757;28;20448;-74
2022/02/12 10:13:42;;;;;;;7.65;2.78;;;6.20;45.60;;;;;;5114900;28;20084;-74
2022/02/12 10:16:08;;;;;;;6.65;3.15;;;6.30;45.30;;;;;;5114552;28;20499;-75
2022/02/12 10:18:39;;;;;;;5.85;3.05;;;6.20;45.00;;;;;;5115012;28;20039;-75
2022/02/12 10:21:05;;;;;;;7.50;2.83;;;6.40;44.70;;;;;;5114748;28;20106;-75
2022/02/12 10:23:33;;;;;;;6.85;3.13;;;6.50;43.60;;;;;;5114856;28;20076;-75
2022/02/12 10:26:01;;;;;;;6.75;2.97;;;6.50;42.40;;;;;;5097533;28;20479;-75
2022/02/12 10:28:30;;;;;;;6.72;2.50;;;6.50;42.00;;;;;;5114246;28;20054;-75
2022/02/12 10:30:57;;;;;;;6.10;2.75;;;6.50;40.80;;;;;;5114903;28;20075;-75
2022/02/12 10:33:28;;;;;;;5.97;2.22;;;6.60;41.00;;;;;;5114873;28;20027;-76
2022/02/12 10:36:03;;;;;;;3.47;2.35;;;6.40;39.50;;;;;;5114502;28;20031;-76
2022/02/12 10:38:33;;;;;;;7.13;2.40;;;6.30;39.80;;;;;;5114495;28;20023;-74
2022/02/12 10:41:12;;;;;;;4.10;2.13;;;6.30;38.70;;;;;;5114636;28;20016;-74
2022/02/12 10:43:39;;;;;;;7.20;2.80;;;6.10;38.50;;;;;;5114363;28;20506;-75
2022/02/12 10:46:06;;;;;;;10.85;4.22;;;6.40;39.20;;;;;;5114354;28;20035;-75
2022/02/12 10:48:37;;;;;;;11.05;4.53;;;6.50;38.90;;;;;;5113755;28;20038;-75
2022/02/12 10:51:04;;;;;;;9.52;3.22;;;6.80;37.80;;;;;;5114089;28;20422;-75
2022/02/12 10:53:30;;;;;;;29.27;10.60;;;7.20;38.00;;;;;;5114764;28;20023;-75
2022/02/12 10:56:04;;;;;;;6.75;2.80;;;7.60;37.00;;;;;;5114167;28;20027;-76
2022/02/12 10:58:31;;;;;;;3.95;2.22;;;7.80;36.00;;;;;;5114617;28;20030;-75
2022/02/12 11:00:57;;;;;;;5.13;2.60;;;7.90;34.30;;;;;;5114593;28;20027;-75
2022/02/12 11:03:25;;;;;;;5.82;2.28;;;8.20;34.10;;;;;;5114499;27;20057;-75
2022/02/12 11:05:53;;;;;;;5.20;2.17;;;8.50;34.00;;;;;;5117872;27;20031;-76
2022/02/12 11:08:23;;;;;;;3.85;2.22;;;8.80;33.30;;;;;;5118075;27;20038;-76
2022/02/12 11:10:49;;;;;;;5.05;2.20;;;9.10;32.50;;;;;;5117966;27;20023;-76
2022/02/12 11:13:14;;;;;;;5.13;2.00;;;9.30;32.20;;;;;;5118081;27;20360;-75
2022/02/12 11:15:40;;;;;;;6.28;2.20;;;9.20;30.80;;;;;;5136135;27;20071;-75
2022/02/12 11:18:17;;;;;;;3.58;2.03;;;8.90;29.00;;;;;;5136223;27;20031;-75
2022/02/12 11:20:43;;;;;;;3.78;2.20;;;8.30;28.80;;;;;;5117774;27;20034;-76
2022/02/12 11:23:18;;;;;;;5.28;2.28;;;8.30;30.30;;;;;;5117948;27;20022;-75
2022/02/12 11:25:47;;;;;;;2.72;1.52;;;8.30;30.00;;;;;;5136115;27;20382;-74
2022/02/12 11:28:14;;;;;;;2.88;1.77;;;8.60;30.00;;;;;;5117640;27;20027;-74
2022/02/12 11:30:42;;;;;;;3.63;1.90;;;8.70;29.60;;;;;;5117705;27;20023;-75
2022/02/12 11:33:16;;;;;;;3.97;2.10;;;8.60;28.50;;;;;;5117294;27;20050;-75
2022/02/12 11:35:42;;;;;;;2.67;1.77;;;8.40;28.30;;;;;;5117836;27;20027;-76
2022/02/12 11:38:37;;;;;;;7.72;2.72;;;8.40;29.60;;;;;;5117553;27;20027;-75
2022/02/12 11:41:23;;;;;;;3.90;1.98;;;8.40;29.20;;;;;;5117254;27;20023;-75
2022/02/12 11:43:50;;;;;;;6.65;2.30;;;8.60;28.60;;;;;;5117238;27;20121;-75
2022/02/12 11:46:47;;;;;;;7.50;2.55;;;8.70;28.90;;;;;;5117094;27;20015;-75
2022/02/12 11:49:37;;;;;;;7.97;2.03;;;8.70;28.40;;;;;;5117099;27;20339;-75
2022/02/12 11:52:07;;;;;;;5.57;2.60;;;8.60;28.00;;;;;;5116983;27;20043;-75
2022/02/12 11:54:44;;;;;;;9.40;2.58;;;8.50;28.30;;;;;;5117175;27;20034;-75
2022/02/12 11:57:25;;;;;;;5.97;2.70;;;8.80;28.50;;;;;;5135588;27;20456;-75
2022/02/12 11:59:52;;;;;;;4.20;2.33;;;8.80;28.10;;;;;;5117105;27;20026;-76
2022/02/12 12:02:36;;;;;;;3.97;2.05;;;9.00;28.20;;;;;;5116856;27;20025;-75
2022/02/12 12:05:13;;;;;;;4.55;2.08;;;9.20;28.60;;;;;;5116846;27;20110;-76
2022/02/12 12:08:01;;;;;;;4.38;2.63;;;9.80;27.80;;;;;;5116844;27;20019;-75
2022/02/12 12:10:35;;;;;;;3.67;2.10;;;10.00;27.30;;;;;;5117028;27;20046;-76
2022/02/12 12:13:25;;;;;;;3.28;1.98;;;10.10;27.00;;;;;;5116848;27;20023;-76
2022/02/12 12:16:14;;;;;;;3.50;2.00;;;10.40;26.20;;;;;;5115531;27;20051;-76
2022/02/12 12:18:47;;;;;;;2.85;1.55;;;10.60;25.90;;;;;;5135315;27;20022;-75
2022/02/12 12:21:14;;;;;;;2.95;1.65;;;10.40;25.70;;;;;;5134954;27;20510;-75
2022/02/12 12:23:52;;;;;;;6.50;2.20;;;10.30;26.50;;;;;;5135243;27;20079;-75
2022/02/12 12:26:17;;;;;;;4.15;2.28;;;10.70;27.00;;;;;;5116080;27;20121;-75
2022/02/12 12:30:44;;;;;;;4.47;2.30;;;10.60;27.00;;;;;;5116447;27;20114;-75
2022/02/12 12:31:31;;;;;;;5.25;2.45;;;10.60;27.00;;;;;;5134610;27;20023;-75
2022/02/12 12:34:06;;;;;;;4.95;2.17;;;10.70;27.40;;;;;;5115625;27;20042;-74
2022/02/12 12:36:37;;;;;;;5.72;2.78;;;11.20;27.60;;;;;;5116074;27;20058;-76
2022/02/12 12:39:09;;;;;;;4.68;2.50;;;11.70;27.50;;;;;;5134194;27;20045;-74
2022/02/12 12:41:37;;;;;;;4.65;2.70;;;12.00;26.90;;;;;;5134139;27;20019;-74
2022/02/12 12:44:14;;;;;;;6.18;2.65;;;12.50;26.40;;;;;;5116108;27;20027;-74
2022/02/12 12:46:54;;;;;;;5.22;2.90;;;11.90;25.50;;;;;;5116042;27;20038;-74
2022/02/12 12:49:39;;;;;;;6.78;2.28;;;11.50;26.40;;;;;;5115554;27;20453;-74
2022/02/12 12:52:10;;;;;;;4.50;2.47;;;11.10;26.50;;;;;;5115951;27;20019;-75
2022/02/12 12:54:40;;;;;;;7.82;2.50;;;11.10;27.10;;;;;;5134141;27;20383;-74
2022/02/12 12:57:07;;;;;;;6.78;2.88;;;11.20;27.00;;;;;;5115309;27;20499;-76